Portada
METAR-TAF:

METAR-TAF

Aeropuertos :

Chino, California, Estados Unidos

latitud: 33-58-32N, longitud: 117-37-25W, altitud: 198 m

Observación

El informe se hizo hace 46 minutos, a las 07:53 UTC
Viento 3 kt del norte-noroeste
Temperatura 11°C
Humedad 87%
Presión 1013 hPa
Visibilidad: 14.5 km
Cielo despejado

METAR: KCNO 040753Z AUTO 34003KT 9SM CLR 11/09 A2992 RMK AO2 SLP128 T01110089 402280100

Hora: 01:39 (08:39 UTC)


TAF: falta

Observaciones y pronósticos meteorológicos de más de 4000 aeropuertos (mensajes METAR y TAF).

Los puntos amarillos y rojos representan las estaciones disponibles.

Ponga el ratón en el punto deseado para ver el nombre de la estación.

Haga clic para ver las observaciones y los pronósticos meteorológicos.

Para cambiar el mapa : haga clic en los botones verdes con una cruz de color negro para hacer un zoom, en el botón verde con un guión para alejar o en las flechas verdes para mapas adyacentes.


METAR-TAF: